Flight Track Log - Related Links

Times and Time Zones

All times are in EDT time to prevent confusion due to time zone crossing. See the FLG3791 flight status page for this flight to view local times or setup timezone preferences in your user account.

Time Position Orientation Groundspeed Altitude Reporting Facility
EDT Latitude Longitude Course Direction KTS MPH feet Rate Location/Type
Fri 08:04:58 PM 42.2006 -83.3578 188° South 168 193 1,300  Level Cleveland Center
Fri 08:05:59 PM 42.1475 -83.3672 188° South 211 243 3,400 1,852 Climbing Cleveland Center
Fri 08:06:19 PM 42.1406 -83.3683 187° South 195 224 3,800 1,778 Climbing Cleveland Center
Fri 08:06:53 PM 42.0883 -83.3731 184° South 274 315 5,000 2,032 Climbing Cleveland Center
Fri 08:07:21 PM 42.0661 -83.3714 177° South 255 293 5,900 2,557 Climbing Cleveland Center
Fri 08:07:54 PM 42.0111 -83.3678 177° South 290 334 7,600 3,238 Climbing Cleveland Center
Fri 08:08:24 PM 41.9689 -83.3631 175° South 296 341 9,300 2,217 Climbing Cleveland Center
Fri 08:09:26 PM 41.8839 -83.3569 177° South 308 354 11,000 1,839 Climbing Cleveland Center
Fri 08:10:28 PM 41.7850 -83.3486 176° South 348 400 13,100 1,984 Climbing Cleveland Center
Fri 08:11:30 PM 41.6836 -83.3406 177° South 361 415 15,100 1,984 Climbing Cleveland Center
Fri 08:12:32 PM 41.5789 -83.3364 178° South 373 429 17,200 1,984 Climbing Cleveland Center
Fri 08:13:34 PM 41.4603 -83.3714 192° South 367 422 19,200 1,500 Climbing Cleveland Center
Fri 08:14:36 PM 41.3642 -83.4264 203° Southwest 370 426 20,300 1,016 Climbing Cleveland Center
Fri 08:15:38 PM 41.2650 -83.4847 204° Southwest 387 445 21,300 968 Climbing Cleveland Center
Fri 08:16:40 PM 41.1625 -83.5425 203° Southwest 397 457 22,300 968 Climbing Cleveland Center
Fri 08:17:42 PM 41.0556 -83.6050 204° Southwest 397 457 23,300 1,008 Climbing Cleveland Center
Fri 08:18:45 PM 40.9531 -83.6633 203° Southwest 397 457 24,400 1,008 Climbing Cleveland Center
Fri 08:19:47 PM 40.8417 -83.6806 187° South 409 471 25,400 1,000 Climbing Cleveland Center
Fri 08:20:27 PM 40.7517 -83.6908 185° South 406 467 26,100 706 Climbing Indianapolis Center
Fri 08:21:29 PM 40.6369 -83.7042 185° South 410 472 26,600 484 Climbing Indianapolis Center
Fri 08:22:31 PM 40.5208 -83.7172 185° South 413 475 27,100 484 Climbing Indianapolis Center
Fri 08:23:33 PM 40.4036 -83.7317 185° South 420 483 27,600 484 Climbing Indianapolis Center
Fri 08:24:35 PM 40.2856 -83.7456 185° South 423 487 28,100 488 Climbing Indianapolis Center
Fri 08:25:36 PM 40.1678 -83.7594 185° South 424 488 28,600 537 Climbing Indianapolis Center
Fri 08:26:38 PM 40.0239 -83.7756 185° South 432 497 29,200 532 Climbing Indianapolis Center
Fri 08:27:40 PM 39.9044 -83.7889 185° South 434 499 29,700 484 Climbing Indianapolis Center
Fri 08:28:42 PM 39.7850 -83.8039 186° South 435 501 30,200 488 Climbing Indianapolis Center
Fri 08:29:43 PM 39.6642 -83.8119 183° South 436 502 30,700 390 Climbing Indianapolis Center
Fri 08:30:45 PM 39.5131 -83.7922 174° South 457 526 31,000 145 Climbing Indianapolis Center
Fri 08:31:47 PM 39.3833 -83.7756 174° South 464 534 31,000  Level Indianapolis Center
Fri 08:32:49 PM 39.2503 -83.7547 173° South 479 551 31,000  Level Indianapolis Center
Fri 08:33:51 PM 39.1181 -83.6983 162° South 495 570 31,000  Level Indianapolis Center
Fri 08:34:52 PM 38.9850 -83.6431 162° South 503 579 31,000  Level Indianapolis Center
Fri 08:35:54 PM 38.8517 -83.5889 162° South 503 579 31,000  Level Indianapolis Center
Fri 08:36:56 PM 38.7169 -83.5361 163° South 503 579 31,000  Level Indianapolis Center
Fri 08:37:58 PM 38.5575 -83.4714 162° South 508 585 31,000  Level Indianapolis Center
Fri 08:38:59 PM 38.4217 -83.4178 163° South 508 585 31,000  Level Indianapolis Center
Fri 08:40:01 PM 38.2856 -83.3633 163° South 509 586 31,000  Level Indianapolis Center
Fri 08:41:03 PM 38.1483 -83.3089 163° South 511 588 31,000  Level Indianapolis Center
Fri 08:42:04 PM 38.0108 -83.2536 162° South 513 590 31,000  Level Indianapolis Center
Fri 08:43:06 PM 37.8719 -83.2003 163° South 514 592 31,000  Level Indianapolis Center
Fri 08:44:08 PM 37.7100 -83.1369 163° South 518 596 31,000 -49 Level Indianapolis Center
Fri 08:45:09 PM 37.5703 -83.0839 163° South 520 598 30,900 -537 Descending Indianapolis Center
Fri 08:46:11 PM 37.4286 -83.0286 163° South 525 604 29,900 -968 Descending Indianapolis Center
Fri 08:47:13 PM 37.2853 -82.9731 163° South 532 612 28,900 -976 Descending Indianapolis Center
Fri 08:48:14 PM 37.1483 -82.9197 163° South 519 597 27,900 -927 Descending Indianapolis Center
Fri 08:49:16 PM 37.0194 -82.8703 163° South 491 565 27,000 -435 Descending Indianapolis Center
Fri 08:50:18 PM 36.8908 -82.8217 163° South 479 551 27,000  Level Indianapolis Center
Fri 08:51:20 PM 36.7539 -82.7694 163° South 483 556 27,000 -634 Level Indianapolis Center
Fri 08:52:21 PM 36.6217 -82.7192 163° South 489 563 25,700 -1,419 Descending Indianapolis Center
Fri 08:52:53 PM 36.5347 -82.6875 164° South 488 562 24,800 -1,435 Descending Atlanta Center
Fri 08:53:53 PM 36.4047 -82.6381 163° South 488 562 23,500 -1,300 Descending Atlanta Center
Fri 08:54:53 PM 36.2769 -82.5914 164° South 483 556 22,200 -1,350 Descending Atlanta Center
Fri 08:55:53 PM 36.1533 -82.5447 163° South 473 544 20,800 -1,450 Descending Atlanta Center
Fri 08:56:53 PM 36.0425 -82.5031 163° South 468 539 19,300 -1,600 Descending Atlanta Center
Fri 08:57:53 PM 35.9231 -82.4567 163° South 458 527 17,600 -1,700 Descending Atlanta Center
Fri 08:58:53 PM 35.8056 -82.4128 163° South 453 521 15,900 -1,750 Descending Atlanta Center
Fri 08:59:53 PM 35.6839 -82.3717 165° South 433 498 14,100 -1,750 Descending Atlanta Center
Fri 09:00:53 PM 35.5856 -82.3356 163° South 416 479 12,400 -1,650 Descending Atlanta Center
Fri 09:01:53 PM 35.4911 -82.3017 164° South 388 447 10,800 -1,500 Descending Atlanta Center
Fri 09:02:53 PM 35.4050 -82.2731 165° South 352 405 9,400 -1,400 Descending Atlanta Center
Fri 09:03:53 PM 35.3214 -82.2619 174° South 322 371 8,000 -1,150 Descending Atlanta Center
Fri 09:04:53 PM 35.2381 -82.2561 177° South 310 357 7,100 -900 Descending Atlanta Center
Fri 09:06:00 PM 35.1149 -82.2333 180° South  Level FlightAware Approximate
Fri 09:13:00 PM 34.8957 -82.2189 180° South  Level Estimated
Fri 09:14:00 PM 34.8957 -82.2189 180° South  Level Estimated
Fri 09:15:00 PM 34.8957 -82.2189 180° South  Level Estimated
Fri 09:16:00 PM 34.8957 -82.2189 180° South  Level Estimated
Fri 09:17:00 PM 34.8957 -82.2189 180° South  Level Estimated
Fri 09:18:00 PM 34.8957 -82.2189 180° South  Level Estimated

Login

Don't have an account? Register now (free) for customized features, flight alerts, and more!